GB-0418 weather

Wishangar Farm private Airstrip
Frensham, England, United Kingdom

Public forecast

Using degrees Celsius for public forecast. Weather courtesy of forecast.io.

METAR (pilot weather report)

Closest report is RAF Odiham, 7.1 nm (13.2 km) NW. Retrieved 2019/03/21 12:50 UTC (32 minutes ago):

EGVO 211250Z 27005KT 9999 OVC018 12/09 Q1033 WHT NOSIG

TAF (pilot weather forecast)

Closest forecast is RAF Odiham, 7.1 nm (13.2 km) NW. Retrieved 2019/03/21 09:33 UTC (4 hours ago):

TAF TAF EGVO 210729Z 2109/2121 26005KT 9999 BKN012 BECMG 2111/2114 BKN015 PROB30 2114/2121 FEW015 PROB30 TEMPO 2120/2121 BKN010